Time;durP1;ratioP1;P1;durP2;ratioP2;P2;SDS_P1;SDS_P2;PMS_P1;PMS_P2;Temp;Humidity;BMP_temperature;BMP_pressure;BME280_temperature;BME280_humidity;BME280_pressure;Samples;Min_cycle;Max_cycle;Signal;HPM_P1;HPM_P2
2024/03/16 00:00:06;;;;;;;37.53;17.95;;;;;;;10.71;100.00;101540.03;10434510;28;20548;-78
2024/03/16 00:05:29;;;;;;;47.65;19.00;;;;;;;10.61;100.00;101536.25;10431694;28;20056;-78
2024/03/16 00:10:52;;;;;;;11.50;6.97;;;;;;;10.68;100.00;101534.69;10423026;28;20181;-78
2024/03/16 00:16:14;;;;;;;11.65;6.70;;;;;;;10.59;100.00;101531.78;10403724;28;20541;-78
2024/03/16 00:21:37;;;;;;;7.53;4.72;;;;;;;10.89;100.00;101518.53;10434194;28;20049;-78
2024/03/16 00:27:00;;;;;;;7.53;5.70;;;;;;;10.90;100.00;101507.97;10434938;28;20073;-78
2024/03/16 00:32:22;;;;;;;8.55;4.78;;;;;;;10.79;100.00;101507.72;10421465;28;20102;-77
2024/03/16 00:37:45;;;;;;;9.18;6.85;;;;;;;10.85;100.00;101501.69;10394989;28;20056;-77
2024/03/16 00:43:07;;;;;;;7.55;4.05;;;;;;;10.97;100.00;101512.56;10426146;28;20627;-77
2024/03/16 00:48:30;;;;;;;7.75;4.30;;;;;;;11.03;100.00;101504.81;10406554;28;20059;-78
2024/03/16 00:53:53;;;;;;;4.53;3.28;;;;;;;10.98;100.00;101514.38;10413852;28;20110;-78
2024/03/16 00:59:17;;;;;;;8.18;4.57;;;;;;;10.90;100.00;101510.63;10385528;28;20563;-78
2024/03/16 01:04:40;;;;;;;12.80;4.78;;;;;;;10.76;100.00;101512.03;10424603;28;20489;-77
2024/03/16 01:10:02;;;;;;;6.50;4.35;;;;;;;10.58;100.00;101507.13;10398356;28;20041;-77
2024/03/16 01:15:26;;;;;;;11.40;7.57;;;;;;;10.58;100.00;101509.75;10409640;28;20158;-78
2024/03/16 01:20:48;;;;;;;8.45;6.60;;;;;;;10.57;100.00;101513.25;10425187;28;20064;-78
2024/03/16 01:26:11;;;;;;;4.50;3.53;;;;;;;10.49;100.00;101520.09;10424042;28;20045;-78
2024/03/16 01:31:34;;;;;;;15.75;11.38;;;;;;;10.61;100.00;101515.13;10420165;28;20052;-78
2024/03/16 01:36:56;;;;;;;4.65;3.40;;;;;;;11.03;100.00;101510.09;10399937;28;20683;-78
2024/03/16 01:42:19;;;;;;;6.10;4.47;;;;;;;10.73;100.00;101502.28;10406752;28;20076;-78
2024/03/16 01:47:42;;;;;;;5.70;3.92;;;;;;;10.46;100.00;101505.88;10432976;28;20138;-78
2024/03/16 01:53:05;;;;;;;7.00;3.78;;;;;;;10.30;100.00;101504.59;10412545;28;20048;-78
2024/03/16 01:58:28;;;;;;;5.20;3.20;;;;;;;10.37;100.00;101496.84;10421786;28;20049;-78
2024/03/16 02:03:51;;;;;;;5.93;4.53;;;;;;;10.34;100.00;101504.72;10416053;28;20052;-78
2024/03/16 02:09:15;;;;;;;11.95;7.38;;;;;;;10.42;100.00;101506.66;10424208;28;20128;-78
2024/03/16 02:14:38;;;;;;;12.93;8.52;;;;;;;10.36;100.00;101510.03;10420034;28;20110;-78
2024/03/16 02:20:00;;;;;;;5.38;4.30;;;;;;;10.39;100.00;101511.00;10409720;28;20057;-78
2024/03/16 02:25:25;;;;;;;7.68;4.80;;;;;;;10.32;100.00;101514.31;10427415;28;20497;-77
2024/03/16 02:30:48;;;;;;;6.25;4.28;;;;;;;10.51;100.00;101518.34;10435119;28;20041;-78
2024/03/16 02:36:10;;;;;;;4.38;3.17;;;;;;;10.82;100.00;101514.84;10425980;28;20045;-77
2024/03/16 02:41:34;;;;;;;4.15;3.17;;;;;;;10.61;100.00;101515.13;10444161;28;20045;-78
2024/03/16 02:46:56;;;;;;;5.78;3.05;;;;;;;10.44;100.00;101521.69;10421547;28;20063;-78
2024/03/16 02:52:19;;;;;;;54.90;50.30;;;;;;;10.31;100.00;101528.34;10423606;28;20493;-78
2024/03/16 02:57:42;;;;;;;30.85;27.88;;;;;;;10.16;100.00;101527.00;10418969;28;20053;-78
2024/03/16 03:03:07;;;;;;;16.30;14.85;;;;;;;9.98;100.00;101533.50;10424093;28;20049;-78
2024/03/16 03:08:32;;;;;;;8.10;4.93;;;;;;;9.82;100.00;101525.09;10409660;28;20455;-78
2024/03/16 03:13:54;;;;;;;7.60;6.53;;;;;;;9.74;100.00;101534.50;10450828;28;20056;-78
2024/03/16 03:19:17;;;;;;;4.38;3.85;;;;;;;9.66;100.00;101528.06;10451755;28;20099;-78
2024/03/16 03:24:40;;;;;;;4.47;2.78;;;;;;;9.83;100.00;101540.06;10423741;28;20053;-77
2024/03/16 03:30:02;;;;;;;4.35;3.70;;;;;;;10.23;100.00;101527.25;10403713;28;20045;-78
2024/03/16 03:35:25;;;;;;;5.13;3.10;;;;;;;10.51;100.00;101536.84;10437090;28;20053;-78
2024/03/16 03:40:48;;;;;;;4.72;3.00;;;;;;;10.57;100.00;101539.66;10416219;28;20060;-78
2024/03/16 03:46:18;;;;;;;7.43;5.00;;;;;;;10.28;100.00;101544.13;10431405;28;20049;-77
2024/03/16 03:51:41;;;;;;;6.13;3.85;;;;;;;10.00;100.00;101554.66;10412513;28;20095;-77
2024/03/16 03:57:05;;;;;;;4.90;3.28;;;;;;;9.78;100.00;101560.13;10419692;28;20052;-78
2024/03/16 04:02:28;;;;;;;4.72;3.30;;;;;;;9.83;100.00;101554.16;10417041;28;20603;-78
2024/03/16 04:07:50;;;;;;;6.10;3.45;;;;;;;10.22;100.00;101557.13;10421776;28;20515;-78
2024/03/16 04:13:13;;;;;;;19.65;16.77;;;;;;;10.19;100.00;101559.66;10398391;28;20132;-78
2024/03/16 04:18:35;;;;;;;8.23;6.18;;;;;;;10.02;100.00;101559.97;10421454;28;20059;-77
2024/03/16 04:23:58;;;;;;;7.32;6.35;;;;;;;10.16;100.00;101564.84;10395039;28;20049;-77
2024/03/16 04:29:20;;;;;;;4.07;3.00;;;;;;;10.47;100.00;101563.13;10399009;28;20106;-77
2024/03/16 04:34:42;;;;;;;5.18;3.45;;;;;;;10.59;100.00;101561.72;10434610;28;20412;-78
2024/03/16 04:40:06;;;;;;;26.70;19.02;;;;;;;10.48;100.00;101571.09;10407188;28;20049;-78
2024/03/16 04:45:28;;;;;;;9.32;6.30;;;;;;;10.60;100.00;101562.63;10420269;28;20051;-78
2024/03/16 04:50:51;;;;;;;7.47;4.88;;;;;;;10.68;100.00;101561.09;10420457;28;20117;-78
2024/03/16 04:56:13;;;;;;;5.35;3.70;;;;;;;11.94;100.00;101559.97;10432915;28;20053;-78
2024/03/16 05:01:36;;;;;;;4.03;2.75;;;;;;;14.13;100.00;101547.19;10431910;28;20041;-78
2024/03/16 05:06:58;;;;;;;3.80;3.10;;;;;;;15.82;100.00;101534.81;10399198;28;20053;-78
2024/03/16 05:12:22;;;;;;;2.47;2.15;;;;;;;17.29;100.00;101534.47;10405126;28;20484;-78
2024/03/16 05:17:45;;;;;;;4.53;2.40;;;;;;;18.43;100.00;101545.00;10395806;28;20075;-78
2024/03/16 05:23:07;;;;;;;3.58;2.30;;;;;;;19.26;100.00;101550.78;10414237;28;20056;-78
2024/03/16 05:28:30;;;;;;;3.63;1.95;;;;;;;19.74;100.00;101546.84;10419761;28;20072;-79
2024/03/16 05:33:52;;;;;;;3.25;1.73;;;;;;;19.84;97.33;101551.22;10405355;28;20140;-79
2024/03/16 05:39:15;;;;;;;2.92;2.00;;;;;;;20.74;91.89;101537.69;10437320;28;20044;-79
2024/03/16 05:44:38;;;;;;;3.08;1.95;;;;;;;21.94;79.98;101540.19;10432914;28;20041;-79
2024/03/16 05:50:01;;;;;;;3.03;1.80;;;;;;;22.19;71.10;101545.13;10406043;28;20118;-79
2024/03/16 05:55:23;;;;;;;3.45;1.80;;;;;;;22.24;72.55;101543.25;10441574;28;20049;-79
2024/03/16 06:00:46;;;;;;;3.63;1.92;;;;;;;23.44;64.35;101539.66;10450787;28;20555;-79
2024/03/16 06:06:08;;;;;;;1.65;1.50;;;;;;;24.27;59.66;101531.19;10437232;28;20049;-79
2024/03/16 06:11:31;;;;;;;3.60;1.70;;;;;;;25.10;55.11;101529.56;10423599;28;20520;-79
2024/03/16 06:16:54;;;;;;;3.63;1.90;;;;;;;25.48;52.85;101536.41;10448991;28;20049;-79
2024/03/16 06:22:18;;;;;;;2.05;1.73;;;;;;;25.86;51.95;101533.34;10423556;28;20572;-79
2024/03/16 06:27:49;;;;;;;4.50;2.30;;;;;;;27.40;46.85;101532.81;10415218;28;20098;-79
2024/03/16 06:33:20;;;;;;;4.35;2.00;;;;;;;28.16;45.10;101533.16;10429175;28;20102;-79
2024/03/16 06:38:43;;;;;;;4.25;2.00;;;;;;;29.14;43.69;101537.63;10429201;28;20037;-79
2024/03/16 06:44:06;;;;;;;18.33;12.52;;;;;;;29.94;42.31;101538.09;10414254;28;20150;-80
2024/03/16 06:49:29;;;;;;;8.45;4.90;;;;;;;30.34;41.47;101547.72;10412342;28;20056;-79
2024/03/16 06:54:52;;;;;;;26.38;16.92;;;;;;;31.00;39.78;101551.31;10441346;28;20407;-80
2024/03/16 07:00:15;;;;;;;22.67;14.00;;;;;;;31.57;38.15;101551.69;10436130;28;20045;-80
2024/03/16 07:05:38;;;;;;;6.63;4.95;;;;;;;32.18;36.85;101550.72;10439135;28;20049;-80
2024/03/16 07:11:01;;;;;;;3.83;2.88;;;;;;;32.35;35.65;101551.47;10406763;28;20049;-81
2024/03/16 07:16:24;;;;;;;4.97;3.45;;;;;;;31.89;35.65;101560.69;10424467;28;20440;-81
2024/03/16 07:21:46;;;;;;;13.52;11.00;;;;;;;32.12;35.63;101562.88;10423832;28;20075;-81
2024/03/16 07:27:09;;;;;;;3.40;1.98;;;;;;;32.47;34.62;101558.00;10417190;28;20460;-81
2024/03/16 07:32:32;;;;;;;4.93;4.18;;;;;;;32.00;35.17;101548.13;10418390;28;20122;-80
2024/03/16 07:37:55;;;;;;;2.70;2.25;;;;;;;32.83;33.91;101554.78;10423750;28;20040;-81
2024/03/16 07:43:17;;;;;;;17.30;11.98;;;;;;;29.77;37.38;101551.69;10403459;28;20128;-80
2024/03/16 07:48:40;;;;;;;2.25;1.75;;;;;;;27.61;42.96;101543.69;10436911;28;20060;-81
2024/03/16 07:54:03;;;;;;;2.80;2.25;;;;;;;30.61;37.90;101543.53;10420251;28;20049;-81
2024/03/16 07:59:25;;;;;;;6.32;4.72;;;;;;;32.17;34.04;101538.91;10435210;28;20049;-80
2024/03/16 08:04:48;;;;;;;2.38;2.03;;;;;;;32.65;32.91;101539.53;10416458;28;20052;-81
2024/03/16 08:10:11;;;;;;;4.68;3.78;;;;;;;33.35;31.52;101535.81;10415357;28;20485;-80
2024/03/16 08:15:33;;;;;;;2.28;1.20;;;;;;;33.29;29.56;101535.34;10402072;28;20055;-81
2024/03/16 08:20:58;;;;;;;2.88;1.42;;;;;;;32.69;28.88;101538.41;10422628;28;20052;-81
2024/03/16 08:26:21;;;;;;;8.30;5.60;;;;;;;33.21;28.48;101536.75;10407552;28;20052;-81
2024/03/16 08:31:44;;;;;;;4.68;3.72;;;;;;;33.43;28.26;101543.53;10409574;28;20055;-82
2024/03/16 08:37:07;;;;;;;9.57;7.05;;;;;;;33.71;28.26;101548.94;10431881;28;20076;-84
2024/03/16 08:42:30;;;;;;;2.50;1.67;;;;;;;33.44;27.35;101553.50;10394302;28;20079;-84
2024/03/16 08:47:53;;;;;;;3.85;2.67;;;;;;;33.87;27.34;101546.88;10406253;28;20092;-84
2024/03/16 08:53:15;;;;;;;2.85;1.88;;;;;;;33.83;27.08;101545.34;10412570;28;20059;-84
2024/03/16 08:58:38;;;;;;;3.47;2.85;;;;;;;33.29;27.30;101543.56;10421508;28;20059;-84
2024/03/16 09:04:01;;;;;;;5.38;2.67;;;;;;;34.59;26.20;101548.13;10405141;28;20041;-83
2024/03/16 09:09:27;;;;;;;5.97;2.85;;;;;;;34.93;25.91;101545.69;10414378;28;20092;-81
2024/03/16 09:14:49;;;;;;;3.40;2.20;;;;;;;34.32;25.51;101534.56;10416630;28;20045;-81
2024/03/16 09:20:13;;;;;;;4.32;3.28;;;;;;;34.92;27.28;101522.84;10417491;28;20037;-81
2024/03/16 09:25:36;;;;;;;11.20;5.72;;;;;;;34.66;27.18;101511.03;10420706;28;20132;-81
2024/03/16 09:31:01;;;;;;;6.88;4.38;;;;;;;32.00;30.70;101504.41;10417536;28;20103;-82
2024/03/16 09:36:23;;;;;;;4.32;2.38;;;;;;;33.15;28.42;101501.53;10456671;28;20072;-82
2024/03/16 09:41:47;;;;;;;5.38;3.33;;;;;;;33.22;28.78;101500.19;10402534;28;20049;-79
2024/03/16 09:47:10;;;;;;;6.63;4.40;;;;;;;33.79;28.73;101496.34;10393671;28;20045;-79
2024/03/16 09:52:33;;;;;;;6.13;4.50;;;;;;;33.73;29.59;101492.16;10411205;28;20136;-79
2024/03/16 09:57:55;;;;;;;7.55;4.22;;;;;;;33.35;29.40;101485.66;10410389;28;20045;-79
2024/03/16 10:03:19;;;;;;;6.72;2.78;;;;;;;33.39;28.12;101481.75;10412593;28;20053;-79
2024/03/16 10:08:42;;;;;;;2.13;1.52;;;;;;;32.27;30.60;101484.56;10441166;28;20041;-79
2024/03/16 10:14:05;;;;;;;2.13;1.48;;;;;;;31.34;32.69;101482.06;10427821;28;20091;-79
2024/03/16 10:19:28;;;;;;;3.63;1.90;;;;;;;30.66;33.66;101492.34;10426856;28;20132;-78
2024/03/16 10:24:51;;;;;;;3.25;1.77;;;;;;;30.84;34.08;101502.22;10454240;28;20075;-80
2024/03/16 10:30:15;;;;;;;2.47;1.70;;;;;;;31.18;33.27;101492.97;10441022;28;20051;-79
2024/03/16 10:35:39;;;;;;;2.30;1.65;;;;;;;30.62;34.36;101495.34;10412277;28;20139;-79
2024/03/16 10:41:05;;;;;;;3.72;2.05;;;;;;;30.32;34.98;101487.00;10385128;28;20053;-78
2024/03/16 10:46:28;;;;;;;3.25;1.85;;;;;;;29.93;34.64;101493.63;10425207;28;20505;-78
2024/03/16 10:51:51;;;;;;;4.63;2.00;;;;;;;30.03;34.40;101489.47;10424669;28;20152;-78
2024/03/16 10:57:14;;;;;;;4.65;2.65;;;;;;;28.22;37.60;101486.72;10431411;28;20118;-84
2024/03/16 11:02:37;;;;;;;3.10;2.22;;;;;;;25.55;42.94;101484.78;10418519;28;20397;-79
2024/03/16 11:08:00;;;;;;;6.82;3.47;;;;;;;23.69;51.67;101494.13;10424830;28;20103;-76
2024/03/16 11:13:23;;;;;;;6.78;3.40;;;;;;;22.57;63.57;101495.91;10391230;28;20064;-81
2024/03/16 11:18:48;;;;;;;6.32;4.70;;;;;;;22.12;69.75;101510.31;10407877;28;20716;-79
2024/03/16 11:24:13;;;;;;;5.70;3.08;;;;;;;21.55;84.70;101509.56;10400115;28;20048;-79
2024/03/16 11:29:39;;;;;;;70.70;9.90;;;;;;;19.95;100.00;101513.59;10411755;28;20068;-76
2024/03/16 11:35:11;;;;;;;29.13;12.82;;;;;;;18.48;100.00;101511.09;10409588;28;20400;-75
2024/03/16 11:40:34;;;;;;;22.00;12.52;;;;;;;17.68;100.00;101522.03;10425079;28;20041;-74
2024/03/16 11:45:56;;;;;;;4.35;3.53;;;;;;;17.12;100.00;101517.56;10397690;28;20076;-74
2024/03/16 11:51:19;;;;;;;4.50;3.28;;;;;;;16.44;100.00;101512.94;10447063;28;20049;-74
2024/03/16 11:56:42;;;;;;;7.88;5.88;;;;;;;16.55;100.00;101512.94;10415680;28;20051;-75
2024/03/16 12:02:05;;;;;;;8.48;5.60;;;;;;;17.24;100.00;101506.00;10413308;28;20409;-75
2024/03/16 12:07:28;;;;;;;7.75;5.90;;;;;;;17.54;100.00;101493.53;10420239;28;20053;-75
2024/03/16 12:12:51;;;;;;;10.05;5.80;;;;;;;17.66;100.00;101489.09;10420568;28;20122;-76
2024/03/16 12:18:13;;;;;;;6.20;4.43;;;;;;;18.27;100.00;101482.69;10413668;28;20703;-76
2024/03/16 12:23:40;;;;;;;6.38;4.85;;;;;;;19.09;100.00;101465.28;10420216;28;20048;-75
2024/03/16 12:29:10;;;;;;;4.88;3.05;;;;;;;19.82;100.00;101448.53;10431900;28;20397;-75
2024/03/16 12:34:32;;;;;;;2.75;2.28;;;;;;;19.75;100.00;101431.63;10410768;28;20127;-75
2024/03/16 12:39:57;;;;;;;3.70;3.17;;;;;;;19.58;100.00;101430.91;10418951;28;20386;-76
2024/03/16 12:45:20;;;;;;;4.03;3.08;;;;;;;19.52;100.00;101424.72;10405802;28;20056;-75
2024/03/16 12:50:42;;;;;;;14.65;7.85;;;;;;;19.22;100.00;101420.53;10414050;28;20115;-74
2024/03/16 12:56:07;;;;;;;23.45;13.15;;;;;;;19.06;100.00;101420.66;10426418;28;20413;-76
2024/03/16 13:01:31;;;;;;;5.57;4.40;;;;;;;19.24;100.00;101416.03;10433249;28;20044;-74
2024/03/16 13:06:53;;;;;;;7.03;5.45;;;;;;;19.48;100.00;101418.53;10407891;28;20483;-74
2024/03/16 13:12:16;;;;;;;5.55;4.80;;;;;;;19.50;100.00;101422.06;10418178;28;20417;-75
2024/03/16 13:17:39;;;;;;;3.17;2.70;;;;;;;19.81;100.00;101420.84;10430100;28;20059;-74
2024/03/16 13:23:02;;;;;;;4.32;2.80;;;;;;;20.18;100.00;101423.03;10400198;28;20084;-74
2024/03/16 13:28:25;;;;;;;2.97;2.65;;;;;;;20.53;100.00;101418.13;10392560;28;20134;-75
2024/03/16 13:33:48;;;;;;;3.95;2.92;;;;;;;20.73;100.00;101422.28;10432244;28;20175;-74
2024/03/16 13:39:10;;;;;;;6.95;3.33;;;;;;;21.12;100.00;101418.94;10429972;28;20103;-74
2024/03/16 13:44:34;;;;;;;8.55;5.38;;;;;;;21.11;100.00;101418.97;10441532;28;20103;-74
2024/03/16 13:49:56;;;;;;;2.60;2.35;;;;;;;21.18;100.00;101416.19;10393420;28;20057;-74
2024/03/16 13:55:21;;;;;;;21.80;13.45;;;;;;;21.27;100.00;101407.06;10413339;28;20049;-75
2024/03/16 14:00:44;;;;;;;8.45;5.65;;;;;;;21.06;100.00;101405.63;10440709;28;20060;-75
2024/03/16 14:06:07;;;;;;;12.32;8.65;;;;;;;21.04;100.00;101410.13;10440585;28;20048;-75
2024/03/16 14:11:30;;;;;;;6.47;5.25;;;;;;;21.10;100.00;101391.22;10426506;28;20559;-74
2024/03/16 14:16:53;;;;;;;3.00;2.67;;;;;;;20.91;100.00;101393.34;10444841;28;20140;-74
2024/03/16 14:22:17;;;;;;;2.58;2.38;;;;;;;20.76;100.00;101393.59;10432712;28;20420;-76
2024/03/16 14:27:41;;;;;;;3.65;2.53;;;;;;;20.72;100.00;101393.69;10445615;28;20522;-75
2024/03/16 14:33:04;;;;;;;2.88;2.30;;;;;;;20.84;100.00;101386.31;10407713;28;20501;-75
2024/03/16 14:38:27;;;;;;;21.38;14.48;;;;;;;21.03;100.00;101393.13;10431319;28;20241;-75
2024/03/16 14:43:51;;;;;;;3.70;2.55;;;;;;;20.93;100.00;101390.66;10422699;28;20064;-76
2024/03/16 14:49:14;;;;;;;4.70;2.28;;;;;;;20.77;100.00;101392.69;10407775;28;20049;-77
2024/03/16 14:54:38;;;;;;;5.25;3.13;;;;;;;20.52;100.00;101380.56;10424342;28;20063;-75
2024/03/16 15:00:01;;;;;;;5.47;3.80;;;;;;;20.26;100.00;101383.63;10403237;28;20057;-76
2024/03/16 15:05:26;;;;;;;3.42;3.00;;;;;;;19.97;100.00;101384.00;10449131;28;20072;-76
2024/03/16 15:10:48;;;;;;;4.25;2.60;;;;;;;19.86;100.00;101384.16;10425673;28;20128;-75
2024/03/16 15:16:11;;;;;;;5.72;3.13;;;;;;;19.75;100.00;101388.75;10444981;28;20404;-76
2024/03/16 15:21:33;;;;;;;3.88;2.53;;;;;;;19.56;100.00;101395.19;10433744;28;20103;-76
2024/03/16 15:27:06;;;;;;;5.85;4.63;;;;;;;19.39;100.00;101392.69;10412501;28;20073;-76
2024/03/16 15:32:29;;;;;;;3.90;2.72;;;;;;;19.25;100.00;101394.63;10448820;28;20401;-75
2024/03/16 15:37:51;;;;;;;5.03;2.30;;;;;;;19.11;100.00;101413.47;10397397;28;20065;-77
2024/03/16 15:43:15;;;;;;;3.00;2.80;;;;;;;19.00;100.00;101410.03;10405514;28;20056;-77
2024/03/16 15:48:37;;;;;;;5.97;2.85;;;;;;;18.88;100.00;101410.13;10398894;28;20159;-76
2024/03/16 15:54:00;;;;;;;10.23;7.28;;;;;;;18.77;100.00;101409.34;10406074;28;20052;-76
2024/03/16 15:59:24;;;;;;;10.20;6.78;;;;;;;18.57;100.00;101411.25;10423769;28;20049;-76
2024/03/16 16:04:47;;;;;;;10.43;5.40;;;;;;;18.47;100.00;101414.84;10420313;28;20674;-76
2024/03/16 16:10:10;;;;;;;14.13;9.60;;;;;;;18.26;100.00;101405.16;10428479;28;20045;-75
2024/03/16 16:15:32;;;;;;;7.10;5.20;;;;;;;18.03;100.00;101410.63;10395628;28;20092;-76
2024/03/16 16:20:55;;;;;;;5.40;3.03;;;;;;;17.73;100.00;101414.28;10405270;28;20049;-76
2024/03/16 16:26:17;;;;;;;21.67;19.35;;;;;;;17.36;100.00;101416.16;10407444;28;20053;-76
2024/03/16 16:31:40;;;;;;;16.15;13.00;;;;;;;17.25;100.00;101412.63;10434964;28;20045;-76
2024/03/16 16:37:03;;;;;;;22.75;15.60;;;;;;;17.31;100.00;101417.94;10408259;28;20048;-76
2024/03/16 16:42:30;;;;;;;15.45;10.23;;;;;;;17.56;100.00;101417.88;10408272;28;20049;-76
2024/03/16 16:47:52;;;;;;;17.45;14.10;;;;;;;17.66;100.00;101417.88;10449869;28;20057;-77
2024/03/16 16:53:15;;;;;;;6.13;4.47;;;;;;;17.62;100.00;101409.88;10408174;28;20044;-75
2024/03/16 16:58:37;;;;;;;3.80;3.35;;;;;;;17.44;100.00;101411.69;10417614;28;20049;-76
2024/03/16 17:04:01;;;;;;;9.32;6.60;;;;;;;17.30;100.00;101410.81;10423780;28;20053;-75
2024/03/16 17:09:24;;;;;;;10.88;9.18;;;;;;;17.11;100.00;101415.28;10406949;28;20409;-75
2024/03/16 17:14:48;;;;;;;5.97;5.30;;;;;;;16.85;100.00;101411.75;10405122;28;20533;-76
2024/03/16 17:20:17;;;;;;;19.38;13.10;;;;;;;16.62;100.00;101422.38;10444149;28;20106;-76
2024/03/16 17:25:40;;;;;;;10.38;9.25;;;;;;;16.48;100.00;101416.09;10422144;28;20041;-76
2024/03/16 17:31:02;;;;;;;24.23;18.60;;;;;;;16.22;100.00;101425.78;10379556;28;20056;-76
2024/03/16 17:36:25;;;;;;;24.65;22.25;;;;;;;15.85;100.00;101428.31;10431981;28;20051;-76
2024/03/16 17:41:47;;;;;;;9.43;8.23;;;;;;;15.83;100.00;101434.50;10419250;28;20116;-76
2024/03/16 17:47:11;;;;;;;27.67;24.48;;;;;;;15.71;100.00;101426.47;10405663;28;20052;-75
2024/03/16 17:52:33;;;;;;;44.00;39.22;;;;;;;15.48;100.00;101432.53;10416241;28;20059;-75
2024/03/16 17:57:58;;;;;;;39.70;35.38;;;;;;;15.15;100.00;101435.84;10414604;28;20049;-75
2024/03/16 18:03:20;;;;;;;25.13;21.42;;;;;;;14.96;100.00;101441.91;10414234;28;20053;-75
2024/03/16 18:08:43;;;;;;;21.65;17.50;;;;;;;15.11;100.00;101435.78;10426800;28;20498;-75
2024/03/16 18:14:06;;;;;;;35.38;29.23;;;;;;;15.47;100.00;101433.41;10426897;28;20106;-75
2024/03/16 18:19:30;;;;;;;37.33;33.47;;;;;;;15.54;100.00;101435.28;10428040;28;20556;-75
2024/03/16 18:24:54;;;;;;;32.20;25.92;;;;;;;15.65;100.00;101439.75;10427527;28;20045;-76
2024/03/16 18:30:17;;;;;;;23.38;15.38;;;;;;;15.57;100.00;101438.81;10434956;28;20041;-75
2024/03/16 18:35:40;;;;;;;11.50;7.68;;;;;;;15.63;100.00;101438.84;10440898;28;20060;-75
2024/03/16 18:41:07;;;;;;;8.70;6.13;;;;;;;15.73;100.00;101443.34;10451729;28;20433;-75
2024/03/16 18:46:31;;;;;;;9.45;8.15;;;;;;;15.78;100.00;101447.81;10453845;28;20053;-75
2024/03/16 18:51:53;;;;;;;16.45;14.75;;;;;;;15.77;100.00;101446.03;10453615;28;20052;-75
2024/03/16 18:57:18;;;;;;;14.57;10.60;;;;;;;15.91;100.00;101447.00;10450348;28;20064;-75
2024/03/16 19:02:41;;;;;;;13.98;12.48;;;;;;;15.96;100.00;101452.34;10428937;28;20478;-75
2024/03/16 19:08:04;;;;;;;13.82;9.55;;;;;;;15.99;100.00;101456.78;10432221;28;20136;-74
2024/03/16 19:13:28;;;;;;;9.82;6.85;;;;;;;16.01;100.00;101455.03;10475930;28;20049;-74
2024/03/16 19:18:58;;;;;;;18.67;16.77;;;;;;;16.11;100.00;101463.06;10448366;28;20053;-76
2024/03/16 19:24:21;;;;;;;91.85;74.90;;;;;;;16.11;100.00;101473.72;10465866;28;20480;-75
2024/03/16 19:29:47;;;;;;;42.03;31.83;;;;;;;16.13;100.00;101457.75;10470661;28;20048;-74
2024/03/16 19:35:10;;;;;;;26.52;22.40;;;;;;;16.15;100.00;101463.94;10421744;28;20218;-75
2024/03/16 19:40:32;;;;;;;9.73;6.95;;;;;;;16.06;100.00;101455.94;10448524;28;20072;-74
2024/03/16 19:45:57;;;;;;;12.25;7.35;;;;;;;15.88;100.00;101457.63;10449396;28;20045;-74
2024/03/16 19:51:19;;;;;;;38.67;27.00;;;;;;;15.57;100.00;101455.66;10444111;28;20068;-74
2024/03/16 19:56:42;;;;;;;20.20;14.10;;;;;;;15.36;100.00;101458.19;10458138;28;20055;-74
2024/03/16 20:02:06;;;;;;;13.73;10.27;;;;;;;15.14;100.00;101459.78;10422825;28;20053;-75
2024/03/16 20:07:30;;;;;;;9.98;8.05;;;;;;;14.82;100.00;101462.16;10458601;28;20401;-75
2024/03/16 20:12:52;;;;;;;12.23;7.47;;;;;;;14.55;100.00;101460.09;10434161;28;20083;-76
2024/03/16 20:18:17;;;;;;;10.25;8.15;;;;;;;14.46;100.00;101469.72;10470648;28;20053;-75
2024/03/16 20:23:39;;;;;;;11.20;8.77;;;;;;;14.48;100.00;101466.22;10447295;28;20049;-74
2024/03/16 20:29:02;;;;;;;21.85;19.55;;;;;;;14.35;100.00;101457.19;10447895;28;20048;-75
2024/03/16 20:34:29;;;;;;;20.50;18.42;;;;;;;14.22;100.00;101460.59;10447235;28;20056;-75
2024/03/16 20:39:52;;;;;;;11.15;8.75;;;;;;;13.92;100.00;101462.84;10447759;28;20045;-74
2024/03/16 20:45:14;;;;;;;21.70;19.80;;;;;;;13.87;100.00;101462.78;10448947;28;20548;-75
2024/03/16 20:50:38;;;;;;;29.02;26.10;;;;;;;13.80;100.00;101470.63;10445539;28;20489;-74
2024/03/16 20:56:01;;;;;;;14.20;12.38;;;;;;;13.77;100.00;101470.63;10447461;28;20392;-75
2024/03/16 21:01:24;;;;;;;16.20;14.40;;;;;;;13.69;100.00;101472.25;10434237;28;20041;-74
2024/03/16 21:06:49;;;;;;;10.73;9.63;;;;;;;13.70;100.00;101466.09;10448330;28;20140;-74
2024/03/16 21:12:11;;;;;;;14.27;10.30;;;;;;;13.69;100.00;101472.25;10447945;28;20057;-75
2024/03/16 21:17:34;;;;;;;19.42;15.55;;;;;;;13.41;100.00;101474.50;10446603;28;20048;-75
2024/03/16 21:22:58;;;;;;;25.08;17.40;;;;;;;13.33;100.00;101476.13;10446889;28;20052;-74
2024/03/16 21:28:22;;;;;;;10.57;8.43;;;;;;;13.46;100.00;101480.75;10450521;28;20056;-75
2024/03/16 21:33:45;;;;;;;16.73;14.63;;;;;;;13.51;100.00;101476.44;10458405;28;20110;-74
2024/03/16 21:39:12;;;;;;;10.98;8.95;;;;;;;13.46;100.00;101477.22;10454903;28;20041;-75
2024/03/16 21:44:34;;;;;;;27.63;22.10;;;;;;;13.19;100.00;101483.00;10482151;28;20055;-75
2024/03/16 21:49:57;;;;;;;23.20;17.75;;;;;;;13.03;100.00;101470.31;10449432;28;20049;-75
2024/03/16 21:55:21;;;;;;;11.38;7.50;;;;;;;13.06;100.00;101467.72;10440111;28;20092;-74
2024/03/16 22:00:44;;;;;;;9.38;6.97;;;;;;;13.01;100.00;101462.31;10454646;28;20049;-75
2024/03/16 22:06:09;;;;;;;16.45;10.13;;;;;;;12.74;100.00;101460.06;10452053;28;20057;-74
2024/03/16 22:11:33;;;;;;;13.35;8.48;;;;;;;12.68;100.00;101465.28;10454542;28;20044;-75
2024/03/16 22:16:55;;;;;;;9.75;6.97;;;;;;;12.73;100.00;101452.13;10440882;28;20140;-74
2024/03/16 22:22:19;;;;;;;33.10;18.60;;;;;;;12.75;100.00;101453.91;10440505;28;20049;-74
2024/03/16 22:27:45;;;;;;;21.85;11.73;;;;;;;12.74;100.00;101452.13;10453469;28;20055;-75
2024/03/16 22:33:09;;;;;;;14.25;8.15;;;;;;;12.64;100.00;101444.91;10413084;28;20045;-74
2024/03/16 22:38:32;;;;;;;22.60;11.98;;;;;;;12.64;100.00;101451.94;10418906;28;20059;-75
2024/03/16 22:43:55;;;;;;;11.68;8.98;;;;;;;12.75;100.00;101456.56;10467229;28;20057;-74
2024/03/16 22:49:18;;;;;;;10.93;9.80;;;;;;;12.83;100.00;101451.41;10466141;28;20106;-74
2024/03/16 22:54:40;;;;;;;9.05;7.20;;;;;;;12.77;100.00;101459.25;10453217;28;20120;-74
2024/03/16 23:00:09;;;;;;;10.93;8.13;;;;;;;12.66;100.00;101447.59;10451895;28;20095;-74
2024/03/16 23:05:31;;;;;;;13.32;9.35;;;;;;;12.64;100.00;101444.91;10476146;28;20044;-75
2024/03/16 23:10:54;;;;;;;8.63;6.75;;;;;;;12.67;100.00;101449.34;10437372;28;20049;-75
2024/03/16 23:16:18;;;;;;;9.77;7.35;;;;;;;12.59;100.00;101448.34;10479218;28;20056;-74
2024/03/16 23:21:40;;;;;;;12.63;8.55;;;;;;;12.58;100.00;101447.44;10451667;28;20118;-75
2024/03/16 23:27:03;;;;;;;8.35;6.13;;;;;;;12.61;100.00;101451.88;10449280;28;20053;-75
2024/03/16 23:32:27;;;;;;;7.63;6.00;;;;;;;12.50;100.00;101449.06;10465332;28;20043;-75
2024/03/16 23:37:50;;;;;;;12.10;6.97;;;;;;;12.53;100.00;101450.88;10463410;28;20060;-75
2024/03/16 23:43:12;;;;;;;10.75;7.20;;;;;;;12.58;100.00;101439.50;10450972;28;20048;-75
2024/03/16 23:48:36;;;;;;;16.55;10.15;;;;;;;12.56;100.00;101438.56;10450420;28;20444;-75
2024/03/16 23:53:59;;;;;;;14.98;8.75;;;;;;;12.53;100.00;101443.81;10448591;28;20052;-75
2024/03/16 23:59:21;;;;;;;12.73;6.90;;;;;;;12.62;100.00;101446.63;10461558;28;20053;-75
